sensor_id;sensor_type;location;lat;lon;timestamp;P1;durP1;ratioP1;P2;durP2;ratioP2
16626;SDS011;8427;52.204;7.202;2023-06-04T00:01:18;68.73;;;45.60;;
16626;SDS011;8427;52.204;7.202;2023-06-04T00:03:46;63.27;;;44.60;;
16626;SDS011;8427;52.204;7.202;2023-06-04T00:06:14;62.13;;;44.37;;
16626;SDS011;8427;52.204;7.202;2023-06-04T00:08:42;63.50;;;44.60;;
16626;SDS011;8427;52.204;7.202;2023-06-04T00:11:10;61.63;;;44.27;;
16626;SDS011;8427;52.204;7.202;2023-06-04T00:13:39;59.57;;;44.43;;
16626;SDS011;8427;52.204;7.202;2023-06-04T00:16:07;60.37;;;44.03;;
16626;SDS011;8427;52.204;7.202;2023-06-04T00:18:36;56.43;;;43.43;;
16626;SDS011;8427;52.204;7.202;2023-06-04T00:21:04;57.10;;;43.30;;
16626;SDS011;8427;52.204;7.202;2023-06-04T00:23:32;55.90;;;43.40;;
16626;SDS011;8427;52.204;7.202;2023-06-04T00:26:00;61.17;;;44.03;;
16626;SDS011;8427;52.204;7.202;2023-06-04T00:28:29;57.67;;;43.80;;
16626;SDS011;8427;52.204;7.202;2023-06-04T00:30:57;58.77;;;43.67;;
16626;SDS011;8427;52.204;7.202;2023-06-04T00:33:24;58.63;;;43.73;;
16626;SDS011;8427;52.204;7.202;2023-06-04T00:35:54;63.13;;;44.40;;
16626;SDS011;8427;52.204;7.202;2023-06-04T00:38:22;61.40;;;44.13;;
16626;SDS011;8427;52.204;7.202;2023-06-04T00:40:50;59.40;;;43.90;;
16626;SDS011;8427;52.204;7.202;2023-06-04T00:43:18;60.53;;;44.20;;
16626;SDS011;8427;52.204;7.202;2023-06-04T00:45:46;55.30;;;43.40;;
16626;SDS011;8427;52.204;7.202;2023-06-04T00:48:14;60.30;;;44.33;;
16626;SDS011;8427;52.204;7.202;2023-06-04T00:50:41;59.73;;;43.90;;
16626;SDS011;8427;52.204;7.202;2023-06-04T00:53:11;60.93;;;44.37;;
16626;SDS011;8427;52.204;7.202;2023-06-04T00:55:39;59.87;;;44.20;;
16626;SDS011;8427;52.204;7.202;2023-06-04T00:58:07;60.80;;;44.30;;
16626;SDS011;8427;52.204;7.202;2023-06-04T01:00:35;74.33;;;45.93;;
16626;SDS011;8427;52.204;7.202;2023-06-04T01:03:06;73.50;;;46.13;;
16626;SDS011;8427;52.204;7.202;2023-06-04T01:05:39;72.33;;;46.07;;
16626;SDS011;8427;52.204;7.202;2023-06-04T01:08:12;78.20;;;46.80;;
16626;SDS011;8427;52.204;7.202;2023-06-04T01:10:49;74.00;;;46.30;;
16626;SDS011;8427;52.204;7.202;2023-06-04T01:13:18;79.10;;;46.83;;
16626;SDS011;8427;52.204;7.202;2023-06-04T01:15:46;73.33;;;46.07;;
16626;SDS011;8427;52.204;7.202;2023-06-04T01:18:14;96.23;;;48.67;;
16626;SDS011;8427;52.204;7.202;2023-06-04T01:20:54;79.17;;;47.07;;
16626;SDS011;8427;52.204;7.202;2023-06-04T01:23:28;71.67;;;46.03;;
16626;SDS011;8427;52.204;7.202;2023-06-04T01:26:01;71.87;;;46.43;;
16626;SDS011;8427;52.204;7.202;2023-06-04T01:28:30;70.47;;;45.87;;
16626;SDS011;8427;52.204;7.202;2023-06-04T01:31:01;65.80;;;45.00;;
16626;SDS011;8427;52.204;7.202;2023-06-04T01:33:30;62.77;;;44.83;;
16626;SDS011;8427;52.204;7.202;2023-06-04T01:35:58;62.60;;;44.60;;
16626;SDS011;8427;52.204;7.202;2023-06-04T01:38:27;65.43;;;45.07;;
16626;SDS011;8427;52.204;7.202;2023-06-04T01:40:55;75.27;;;46.57;;
16626;SDS011;8427;52.204;7.202;2023-06-04T01:43:27;69.30;;;46.13;;
16626;SDS011;8427;52.204;7.202;2023-06-04T01:45:56;71.37;;;45.97;;
16626;SDS011;8427;52.204;7.202;2023-06-04T01:48:24;85.30;;;47.73;;
16626;SDS011;8427;52.204;7.202;2023-06-04T01:50:52;106.30;;;50.07;;
16626;SDS011;8427;52.204;7.202;2023-06-04T01:53:21;111.53;;;50.67;;
16626;SDS011;8427;52.204;7.202;2023-06-04T01:55:50;108.07;;;50.67;;
16626;SDS011;8427;52.204;7.202;2023-06-04T01:58:18;76.53;;;46.77;;
16626;SDS011;8427;52.204;7.202;2023-06-04T02:00:49;81.37;;;47.63;;
16626;SDS011;8427;52.204;7.202;2023-06-04T02:03:19;75.83;;;47.17;;
16626;SDS011;8427;52.204;7.202;2023-06-04T02:05:47;73.33;;;46.43;;
16626;SDS011;8427;52.204;7.202;2023-06-04T02:08:15;72.50;;;46.60;;
16626;SDS011;8427;52.204;7.202;2023-06-04T02:10:45;72.03;;;46.60;;
16626;SDS011;8427;52.204;7.202;2023-06-04T02:13:15;69.07;;;46.17;;
16626;SDS011;8427;52.204;7.202;2023-06-04T02:15:43;66.63;;;45.73;;
16626;SDS011;8427;52.204;7.202;2023-06-04T02:18:12;76.70;;;47.43;;
16626;SDS011;8427;52.204;7.202;2023-06-04T02:20:43;76.03;;;47.83;;
16626;SDS011;8427;52.204;7.202;2023-06-04T02:23:12;76.93;;;47.37;;
16626;SDS011;8427;52.204;7.202;2023-06-04T02:25:41;71.03;;;46.30;;
16626;SDS011;8427;52.204;7.202;2023-06-04T02:28:11;66.30;;;45.93;;
16626;SDS011;8427;52.204;7.202;2023-06-04T02:30:41;66.30;;;45.60;;
16626;SDS011;8427;52.204;7.202;2023-06-04T02:33:09;75.00;;;47.00;;
16626;SDS011;8427;52.204;7.202;2023-06-04T02:35:37;79.53;;;47.83;;
16626;SDS011;8427;52.204;7.202;2023-06-04T02:38:05;78.20;;;47.10;;
16626;SDS011;8427;52.204;7.202;2023-06-04T02:40:33;59.00;;;44.93;;
16626;SDS011;8427;52.204;7.202;2023-06-04T02:43:01;57.53;;;44.70;;
16626;SDS011;8427;52.204;7.202;2023-06-04T02:45:29;60.13;;;45.13;;
16626;SDS011;8427;52.204;7.202;2023-06-04T02:47:59;55.87;;;44.50;;
16626;SDS011;8427;52.204;7.202;2023-06-04T02:50:27;60.07;;;44.97;;
16626;SDS011;8427;52.204;7.202;2023-06-04T02:52:55;58.23;;;44.63;;
16626;SDS011;8427;52.204;7.202;2023-06-04T02:55:23;63.30;;;45.93;;
16626;SDS011;8427;52.204;7.202;2023-06-04T02:57:51;55.90;;;44.60;;
16626;SDS011;8427;52.204;7.202;2023-06-04T03:00:19;61.63;;;45.73;;
16626;SDS011;8427;52.204;7.202;2023-06-04T03:02:47;54.43;;;44.57;;
16626;SDS011;8427;52.204;7.202;2023-06-04T03:05:17;53.03;;;44.23;;
16626;SDS011;8427;52.204;7.202;2023-06-04T03:07:45;56.70;;;44.73;;
16626;SDS011;8427;52.204;7.202;2023-06-04T03:10:14;50.13;;;43.60;;
16626;SDS011;8427;52.204;7.202;2023-06-04T03:12:42;53.07;;;44.20;;
16626;SDS011;8427;52.204;7.202;2023-06-04T03:15:10;52.93;;;44.27;;
16626;SDS011;8427;52.204;7.202;2023-06-04T03:17:39;55.70;;;45.00;;
16626;SDS011;8427;52.204;7.202;2023-06-04T03:20:07;55.53;;;44.53;;
16626;SDS011;8427;52.204;7.202;2023-06-04T03:22:37;52.67;;;44.40;;
16626;SDS011;8427;52.204;7.202;2023-06-04T03:25:05;60.03;;;46.13;;
16626;SDS011;8427;52.204;7.202;2023-06-04T03:27:34;51.30;;;44.30;;
16626;SDS011;8427;52.204;7.202;2023-06-04T03:30:02;49.50;;;43.80;;
16626;SDS011;8427;52.204;7.202;2023-06-04T03:32:31;53.00;;;44.80;;
16626;SDS011;8427;52.204;7.202;2023-06-04T03:34:59;51.20;;;44.30;;
16626;SDS011;8427;52.204;7.202;2023-06-04T03:37:27;52.37;;;44.60;;
16626;SDS011;8427;52.204;7.202;2023-06-04T03:39:56;55.70;;;45.43;;
16626;SDS011;8427;52.204;7.202;2023-06-04T03:42:24;49.30;;;43.90;;
16626;SDS011;8427;52.204;7.202;2023-06-04T03:44:52;48.97;;;43.70;;
16626;SDS011;8427;52.204;7.202;2023-06-04T03:47:20;50.00;;;43.87;;
16626;SDS011;8427;52.204;7.202;2023-06-04T03:49:48;51.47;;;44.57;;
16626;SDS011;8427;52.204;7.202;2023-06-04T03:52:16;52.53;;;44.63;;
16626;SDS011;8427;52.204;7.202;2023-06-04T03:54:44;57.30;;;46.10;;
16626;SDS011;8427;52.204;7.202;2023-06-04T03:57:13;53.07;;;44.90;;
16626;SDS011;8427;52.204;7.202;2023-06-04T03:59:41;49.27;;;43.87;;
16626;SDS011;8427;52.204;7.202;2023-06-04T04:02:10;51.27;;;44.73;;
16626;SDS011;8427;52.204;7.202;2023-06-04T04:04:38;55.30;;;45.87;;
16626;SDS011;8427;52.204;7.202;2023-06-04T04:07:06;50.73;;;44.70;;
16626;SDS011;8427;52.204;7.202;2023-06-04T04:09:34;69.60;;;48.80;;
16626;SDS011;8427;52.204;7.202;2023-06-04T04:12:02;49.83;;;44.43;;
16626;SDS011;8427;52.204;7.202;2023-06-04T04:14:32;51.00;;;44.80;;
16626;SDS011;8427;52.204;7.202;2023-06-04T04:17:00;49.23;;;44.03;;
16626;SDS011;8427;52.204;7.202;2023-06-04T04:19:28;49.53;;;44.23;;
16626;SDS011;8427;52.204;7.202;2023-06-04T04:21:56;49.73;;;44.33;;
16626;SDS011;8427;52.204;7.202;2023-06-04T04:24:24;50.47;;;44.97;;
16626;SDS011;8427;52.204;7.202;2023-06-04T04:26:53;51.60;;;45.07;;
16626;SDS011;8427;52.204;7.202;2023-06-04T04:29:22;52.73;;;45.70;;
16626;SDS011;8427;52.204;7.202;2023-06-04T04:31:52;47.97;;;43.33;;
16626;SDS011;8427;52.204;7.202;2023-06-04T04:34:22;49.83;;;44.67;;
16626;SDS011;8427;52.204;7.202;2023-06-04T04:36:52;47.83;;;43.20;;
16626;SDS011;8427;52.204;7.202;2023-06-04T04:39:23;47.80;;;43.17;;
16626;SDS011;8427;52.204;7.202;2023-06-04T04:41:51;49.10;;;44.10;;
16626;SDS011;8427;52.204;7.202;2023-06-04T04:44:21;49.23;;;44.33;;
16626;SDS011;8427;52.204;7.202;2023-06-04T04:46:49;48.37;;;43.63;;
16626;SDS011;8427;52.204;7.202;2023-06-04T04:49:18;58.80;;;46.97;;
16626;SDS011;8427;52.204;7.202;2023-06-04T04:51:46;49.63;;;44.47;;
16626;SDS011;8427;52.204;7.202;2023-06-04T04:54:15;50.47;;;45.03;;
16626;SDS011;8427;52.204;7.202;2023-06-04T04:56:43;51.60;;;45.43;;
16626;SDS011;8427;52.204;7.202;2023-06-04T04:59:11;73.50;;;48.80;;
16626;SDS011;8427;52.204;7.202;2023-06-04T05:01:39;64.83;;;45.90;;
16626;SDS011;8427;52.204;7.202;2023-06-04T05:04:07;49.17;;;43.77;;
16626;SDS011;8427;52.204;7.202;2023-06-04T05:06:36;49.43;;;44.07;;
16626;SDS011;8427;52.204;7.202;2023-06-04T05:09:04;58.00;;;45.57;;
16626;SDS011;8427;52.204;7.202;2023-06-04T05:11:33;62.63;;;45.90;;
16626;SDS011;8427;52.204;7.202;2023-06-04T05:14:01;87.83;;;52.30;;
16626;SDS011;8427;52.204;7.202;2023-06-04T05:16:29;71.30;;;48.23;;
16626;SDS011;8427;52.204;7.202;2023-06-04T05:18:57;66.60;;;47.17;;
16626;SDS011;8427;52.204;7.202;2023-06-04T05:21:26;57.27;;;44.80;;
16626;SDS011;8427;52.204;7.202;2023-06-04T05:23:56;68.00;;;48.50;;
16626;SDS011;8427;52.204;7.202;2023-06-04T05:26:24;70.27;;;46.80;;
16626;SDS011;8427;52.204;7.202;2023-06-04T05:28:53;84.60;;;49.10;;
16626;SDS011;8427;52.204;7.202;2023-06-04T05:31:24;77.90;;;47.17;;
16626;SDS011;8427;52.204;7.202;2023-06-04T05:33:53;80.70;;;49.73;;
16626;SDS011;8427;52.204;7.202;2023-06-04T05:36:21;74.53;;;47.07;;
16626;SDS011;8427;52.204;7.202;2023-06-04T05:38:49;97.07;;;50.03;;
16626;SDS011;8427;52.204;7.202;2023-06-04T05:41:24;104.97;;;49.97;;
16626;SDS011;8427;52.204;7.202;2023-06-04T05:43:53;52.63;;;44.63;;
16626;SDS011;8427;52.204;7.202;2023-06-04T05:46:21;53.50;;;44.57;;
16626;SDS011;8427;52.204;7.202;2023-06-04T05:48:49;76.50;;;48.00;;
16626;SDS011;8427;52.204;7.202;2023-06-04T05:51:18;62.53;;;45.97;;
16626;SDS011;8427;52.204;7.202;2023-06-04T05:53:46;60.53;;;45.93;;
16626;SDS011;8427;52.204;7.202;2023-06-04T05:56:14;77.93;;;48.23;;
16626;SDS011;8427;52.204;7.202;2023-06-04T05:58:50;58.67;;;45.40;;
16626;SDS011;8427;52.204;7.202;2023-06-04T06:01:18;57.20;;;45.17;;
16626;SDS011;8427;52.204;7.202;2023-06-04T06:03:46;57.40;;;45.30;;
16626;SDS011;8427;52.204;7.202;2023-06-04T06:06:15;59.13;;;45.70;;
16626;SDS011;8427;52.204;7.202;2023-06-04T06:08:44;64.83;;;46.50;;
16626;SDS011;8427;52.204;7.202;2023-06-04T06:11:13;58.20;;;45.73;;
16626;SDS011;8427;52.204;7.202;2023-06-04T06:13:41;52.77;;;44.47;;
16626;SDS011;8427;52.204;7.202;2023-06-04T06:16:11;60.70;;;45.67;;
16626;SDS011;8427;52.204;7.202;2023-06-04T06:18:39;56.83;;;45.23;;
16626;SDS011;8427;52.204;7.202;2023-06-04T06:21:07;60.33;;;45.70;;
16626;SDS011;8427;52.204;7.202;2023-06-04T06:23:35;58.33;;;45.53;;
16626;SDS011;8427;52.204;7.202;2023-06-04T06:26:03;62.53;;;46.10;;
16626;SDS011;8427;52.204;7.202;2023-06-04T06:28:34;66.10;;;46.27;;
16626;SDS011;8427;52.204;7.202;2023-06-04T06:31:04;57.03;;;45.33;;
16626;SDS011;8427;52.204;7.202;2023-06-04T06:33:34;65.67;;;46.50;;
16626;SDS011;8427;52.204;7.202;2023-06-04T06:36:07;60.50;;;45.83;;
16626;SDS011;8427;52.204;7.202;2023-06-04T06:38:38;61.20;;;46.00;;
16626;SDS011;8427;52.204;7.202;2023-06-04T06:41:07;65.13;;;46.13;;
16626;SDS011;8427;52.204;7.202;2023-06-04T06:43:35;65.57;;;46.70;;
16626;SDS011;8427;52.204;7.202;2023-06-04T06:46:04;62.33;;;46.00;;
16626;SDS011;8427;52.204;7.202;2023-06-04T06:48:33;64.33;;;46.57;;
16626;SDS011;8427;52.204;7.202;2023-06-04T06:51:01;67.87;;;47.17;;
16626;SDS011;8427;52.204;7.202;2023-06-04T06:53:29;63.40;;;46.80;;
16626;SDS011;8427;52.204;7.202;2023-06-04T06:55:58;59.07;;;46.20;;
16626;SDS011;8427;52.204;7.202;2023-06-04T06:58:26;63.53;;;46.70;;
16626;SDS011;8427;52.204;7.202;2023-06-04T07:00:55;66.60;;;47.03;;
16626;SDS011;8427;52.204;7.202;2023-06-04T07:03:24;81.87;;;48.63;;
16626;SDS011;8427;52.204;7.202;2023-06-04T07:05:53;72.90;;;47.53;;
16626;SDS011;8427;52.204;7.202;2023-06-04T07:08:21;92.27;;;50.17;;
16626;SDS011;8427;52.204;7.202;2023-06-04T07:10:49;71.20;;;47.70;;
16626;SDS011;8427;52.204;7.202;2023-06-04T07:13:17;79.70;;;48.67;;
16626;SDS011;8427;52.204;7.202;2023-06-04T07:15:46;88.90;;;49.87;;
16626;SDS011;8427;52.204;7.202;2023-06-04T07:18:14;83.27;;;49.30;;
16626;SDS011;8427;52.204;7.202;2023-06-04T07:20:43;58.63;;;46.60;;
16626;SDS011;8427;52.204;7.202;2023-06-04T07:23:11;66.83;;;47.33;;
16626;SDS011;8427;52.204;7.202;2023-06-04T07:25:39;79.13;;;48.80;;
16626;SDS011;8427;52.204;7.202;2023-06-04T07:28:07;61.83;;;46.90;;
16626;SDS011;8427;52.204;7.202;2023-06-04T07:30:35;63.90;;;47.00;;
16626;SDS011;8427;52.204;7.202;2023-06-04T07:33:03;71.40;;;48.00;;
16626;SDS011;8427;52.204;7.202;2023-06-04T07:35:32;65.40;;;47.40;;
16626;SDS011;8427;52.204;7.202;2023-06-04T07:38:02;64.13;;;47.50;;
16626;SDS011;8427;52.204;7.202;2023-06-04T07:40:30;60.73;;;46.73;;
16626;SDS011;8427;52.204;7.202;2023-06-04T07:42:58;63.77;;;47.73;;
16626;SDS011;8427;52.204;7.202;2023-06-04T07:45:26;65.50;;;47.47;;
16626;SDS011;8427;52.204;7.202;2023-06-04T07:47:57;65.80;;;47.27;;
16626;SDS011;8427;52.204;7.202;2023-06-04T07:50:25;66.43;;;47.43;;
16626;SDS011;8427;52.204;7.202;2023-06-04T07:52:53;129.27;;;54.03;;
16626;SDS011;8427;52.204;7.202;2023-06-04T07:55:23;105.80;;;51.63;;
16626;SDS011;8427;52.204;7.202;2023-06-04T07:57:51;235.80;;;88.10;;
16626;SDS011;8427;52.204;7.202;2023-06-04T08:00:19;89.40;;;50.27;;
16626;SDS011;8427;52.204;7.202;2023-06-04T08:02:47;89.10;;;50.53;;
16626;SDS011;8427;52.204;7.202;2023-06-04T08:05:17;81.60;;;49.90;;
16626;SDS011;8427;52.204;7.202;2023-06-04T08:07:45;74.57;;;48.97;;
16626;SDS011;8427;52.204;7.202;2023-06-04T08:10:14;77.57;;;49.30;;
16626;SDS011;8427;52.204;7.202;2023-06-04T08:12:43;79.30;;;49.20;;
16626;SDS011;8427;52.204;7.202;2023-06-04T08:15:11;71.97;;;48.97;;
16626;SDS011;8427;52.204;7.202;2023-06-04T08:17:39;73.13;;;49.20;;
16626;SDS011;8427;52.204;7.202;2023-06-04T08:20:08;78.80;;;50.20;;
16626;SDS011;8427;52.204;7.202;2023-06-04T08:22:36;70.67;;;48.67;;
16626;SDS011;8427;52.204;7.202;2023-06-04T08:25:04;72.73;;;49.30;;
16626;SDS011;8427;52.204;7.202;2023-06-04T08:27:32;67.53;;;48.47;;
16626;SDS011;8427;52.204;7.202;2023-06-04T08:30:02;74.13;;;49.43;;
16626;SDS011;8427;52.204;7.202;2023-06-04T08:32:30;75.40;;;49.60;;
16626;SDS011;8427;52.204;7.202;2023-06-04T08:34:59;66.13;;;48.27;;
16626;SDS011;8427;52.204;7.202;2023-06-04T08:37:27;71.57;;;49.07;;
16626;SDS011;8427;52.204;7.202;2023-06-04T08:39:55;66.40;;;48.30;;
16626;SDS011;8427;52.204;7.202;2023-06-04T08:42:26;66.27;;;48.30;;
16626;SDS011;8427;52.204;7.202;2023-06-04T08:44:56;64.43;;;48.23;;
16626;SDS011;8427;52.204;7.202;2023-06-04T08:47:26;73.57;;;49.40;;
16626;SDS011;8427;52.204;7.202;2023-06-04T08:49:58;67.43;;;48.73;;
16626;SDS011;8427;52.204;7.202;2023-06-04T08:52:27;74.70;;;49.70;;
16626;SDS011;8427;52.204;7.202;2023-06-04T08:54:55;69.50;;;48.93;;
16626;SDS011;8427;52.204;7.202;2023-06-04T08:57:24;64.03;;;48.10;;
16626;SDS011;8427;52.204;7.202;2023-06-04T08:59:52;58.87;;;47.37;;
16626;SDS011;8427;52.204;7.202;2023-06-04T09:02:20;64.23;;;48.20;;
16626;SDS011;8427;52.204;7.202;2023-06-04T09:04:50;69.13;;;49.07;;
16626;SDS011;8427;52.204;7.202;2023-06-04T09:07:18;250.87;;;110.03;;
16626;SDS011;8427;52.204;7.202;2023-06-04T09:09:46;167.67;;;80.07;;
16626;SDS011;8427;52.204;7.202;2023-06-04T09:12:35;163.73;;;84.97;;
16626;SDS011;8427;52.204;7.202;2023-06-04T09:15:06;166.00;;;71.37;;
16626;SDS011;8427;52.204;7.202;2023-06-04T09:17:35;115.60;;;54.10;;
16626;SDS011;8427;52.204;7.202;2023-06-04T09:20:05;245.47;;;80.73;;
16626;SDS011;8427;52.204;7.202;2023-06-04T09:22:35;59.07;;;47.57;;
16626;SDS011;8427;52.204;7.202;2023-06-04T09:25:05;64.17;;;48.47;;
16626;SDS011;8427;52.204;7.202;2023-06-04T09:27:45;59.60;;;47.87;;
16626;SDS011;8427;52.204;7.202;2023-06-04T09:30:13;65.30;;;48.30;;
16626;SDS011;8427;52.204;7.202;2023-06-04T09:32:42;69.30;;;49.00;;
16626;SDS011;8427;52.204;7.202;2023-06-04T09:35:12;66.23;;;48.97;;
16626;SDS011;8427;52.204;7.202;2023-06-04T09:37:41;65.63;;;48.97;;
16626;SDS011;8427;52.204;7.202;2023-06-04T09:40:10;60.47;;;48.03;;
16626;SDS011;8427;52.204;7.202;2023-06-04T09:42:41;74.43;;;49.90;;
16626;SDS011;8427;52.204;7.202;2023-06-04T09:45:11;157.77;;;68.53;;
16626;SDS011;8427;52.204;7.202;2023-06-04T09:47:39;86.10;;;51.53;;
16626;SDS011;8427;52.204;7.202;2023-06-04T09:50:08;91.53;;;52.23;;
16626;SDS011;8427;52.204;7.202;2023-06-04T09:52:39;233.57;;;92.20;;
16626;SDS011;8427;52.204;7.202;2023-06-04T09:55:16;247.87;;;101.97;;
16626;SDS011;8427;52.204;7.202;2023-06-04T09:57:46;252.97;;;144.13;;
16626;SDS011;8427;52.204;7.202;2023-06-04T10:00:16;127.17;;;55.93;;
16626;SDS011;8427;52.204;7.202;2023-06-04T10:05:45;83.93;;;51.10;;
16626;SDS011;8427;52.204;7.202;2023-06-04T10:08:13;112.80;;;54.63;;
16626;SDS011;8427;52.204;7.202;2023-06-04T10:10:44;67.20;;;49.03;;
16626;SDS011;8427;52.204;7.202;2023-06-04T10:13:14;83.67;;;51.60;;
16626;SDS011;8427;52.204;7.202;2023-06-04T10:15:45;63.37;;;48.60;;
16626;SDS011;8427;52.204;7.202;2023-06-04T10:18:14;65.83;;;48.80;;
16626;SDS011;8427;52.204;7.202;2023-06-04T10:20:42;69.40;;;49.23;;
16626;SDS011;8427;52.204;7.202;2023-06-04T10:23:12;63.33;;;48.83;;
16626;SDS011;8427;52.204;7.202;2023-06-04T10:25:41;62.43;;;48.70;;
16626;SDS011;8427;52.204;7.202;2023-06-04T10:28:09;62.27;;;48.67;;
16626;SDS011;8427;52.204;7.202;2023-06-04T10:30:38;58.30;;;48.03;;
16626;SDS011;8427;52.204;7.202;2023-06-04T10:33:06;60.33;;;48.00;;
16626;SDS011;8427;52.204;7.202;2023-06-04T10:35:35;60.13;;;48.20;;
16626;SDS011;8427;52.204;7.202;2023-06-04T10:38:08;70.90;;;49.60;;
16626;SDS011;8427;52.204;7.202;2023-06-04T10:40:36;54.30;;;47.20;;
16626;SDS011;8427;52.204;7.202;2023-06-04T10:43:05;66.50;;;49.03;;
16626;SDS011;8427;52.204;7.202;2023-06-04T10:45:33;62.37;;;48.67;;
16626;SDS011;8427;52.204;7.202;2023-06-04T10:48:02;57.67;;;48.13;;
16626;SDS011;8427;52.204;7.202;2023-06-04T10:50:31;55.93;;;47.63;;
16626;SDS011;8427;52.204;7.202;2023-06-04T10:52:59;54.23;;;47.40;;
16626;SDS011;8427;52.204;7.202;2023-06-04T10:55:30;56.43;;;47.90;;
16626;SDS011;8427;52.204;7.202;2023-06-04T10:58:03;59.87;;;48.00;;
16626;SDS011;8427;52.204;7.202;2023-06-04T11:00:35;57.80;;;47.53;;
16626;SDS011;8427;52.204;7.202;2023-06-04T11:03:04;57.07;;;47.77;;
16626;SDS011;8427;52.204;7.202;2023-06-04T11:05:35;62.60;;;48.43;;
16626;SDS011;8427;52.204;7.202;2023-06-04T11:08:03;58.37;;;48.30;;
16626;SDS011;8427;52.204;7.202;2023-06-04T11:10:34;56.17;;;48.00;;
16626;SDS011;8427;52.204;7.202;2023-06-04T11:13:03;68.97;;;49.73;;
16626;SDS011;8427;52.204;7.202;2023-06-04T11:15:39;54.47;;;47.83;;
16626;SDS011;8427;52.204;7.202;2023-06-04T11:18:08;57.10;;;47.67;;
16626;SDS011;8427;52.204;7.202;2023-06-04T11:20:41;55.53;;;47.80;;
16626;SDS011;8427;52.204;7.202;2023-06-04T11:23:11;60.73;;;48.50;;
16626;SDS011;8427;52.204;7.202;2023-06-04T11:25:43;56.53;;;47.63;;
16626;SDS011;8427;52.204;7.202;2023-06-04T11:28:15;56.30;;;47.73;;
16626;SDS011;8427;52.204;7.202;2023-06-04T11:30:46;63.43;;;49.07;;
16626;SDS011;8427;52.204;7.202;2023-06-04T11:33:23;57.90;;;48.13;;
16626;SDS011;8427;52.204;7.202;2023-06-04T11:35:51;61.37;;;49.03;;
16626;SDS011;8427;52.204;7.202;2023-06-04T11:38:19;62.27;;;48.83;;
16626;SDS011;8427;52.204;7.202;2023-06-04T11:40:55;61.33;;;48.63;;
16626;SDS011;8427;52.204;7.202;2023-06-04T11:43:25;76.13;;;50.70;;
16626;SDS011;8427;52.204;7.202;2023-06-04T11:45:53;70.33;;;50.13;;
16626;SDS011;8427;52.204;7.202;2023-06-04T11:48:21;85.03;;;52.17;;
16626;SDS011;8427;52.204;7.202;2023-06-04T11:50:49;64.00;;;49.10;;
16626;SDS011;8427;52.204;7.202;2023-06-04T11:53:17;66.47;;;49.13;;
16626;SDS011;8427;52.204;7.202;2023-06-04T11:55:46;66.70;;;49.43;;
16626;SDS011;8427;52.204;7.202;2023-06-04T11:58:15;69.03;;;50.00;;
16626;SDS011;8427;52.204;7.202;2023-06-04T12:00:43;69.20;;;49.93;;
16626;SDS011;8427;52.204;7.202;2023-06-04T12:03:11;65.47;;;49.33;;
16626;SDS011;8427;52.204;7.202;2023-06-04T12:05:39;70.07;;;49.63;;
16626;SDS011;8427;52.204;7.202;2023-06-04T12:08:08;81.07;;;51.20;;
16626;SDS011;8427;52.204;7.202;2023-06-04T12:10:37;69.20;;;49.90;;
16626;SDS011;8427;52.204;7.202;2023-06-04T12:13:06;74.30;;;50.60;;
16626;SDS011;8427;52.204;7.202;2023-06-04T12:15:36;182.67;;;71.43;;
16626;SDS011;8427;52.204;7.202;2023-06-04T12:18:04;162.70;;;81.07;;
16626;SDS011;8427;52.204;7.202;2023-06-04T12:20:33;245.80;;;100.10;;
16626;SDS011;8427;52.204;7.202;2023-06-04T12:23:02;146.63;;;83.33;;
16626;SDS011;8427;52.204;7.202;2023-06-04T12:25:31;271.43;;;101.13;;
16626;SDS011;8427;52.204;7.202;2023-06-04T12:28:00;252.97;;;105.73;;
16626;SDS011;8427;52.204;7.202;2023-06-04T12:30:38;218.73;;;87.23;;
16626;SDS011;8427;52.204;7.202;2023-06-04T12:33:07;102.20;;;54.10;;
16626;SDS011;8427;52.204;7.202;2023-06-04T12:35:37;124.63;;;56.80;;
16626;SDS011;8427;52.204;7.202;2023-06-04T12:38:05;194.10;;;79.10;;
16626;SDS011;8427;52.204;7.202;2023-06-04T12:40:35;164.70;;;63.67;;
16626;SDS011;8427;52.204;7.202;2023-06-04T12:43:04;239.13;;;127.97;;
16626;SDS011;8427;52.204;7.202;2023-06-04T12:45:33;138.33;;;57.80;;
16626;SDS011;8427;52.204;7.202;2023-06-04T12:48:02;110.33;;;54.83;;
16626;SDS011;8427;52.204;7.202;2023-06-04T12:50:31;196.10;;;88.50;;
16626;SDS011;8427;52.204;7.202;2023-06-04T12:52:59;91.13;;;53.13;;
16626;SDS011;8427;52.204;7.202;2023-06-04T12:55:26;155.37;;;60.40;;
16626;SDS011;8427;52.204;7.202;2023-06-04T12:57:54;70.40;;;50.20;;
16626;SDS011;8427;52.204;7.202;2023-06-04T13:00:22;72.53;;;50.40;;
16626;SDS011;8427;52.204;7.202;2023-06-04T13:02:50;63.73;;;49.63;;
16626;SDS011;8427;52.204;7.202;2023-06-04T13:05:20;72.23;;;50.57;;
16626;SDS011;8427;52.204;7.202;2023-06-04T13:07:48;70.20;;;50.07;;
16626;SDS011;8427;52.204;7.202;2023-06-04T13:10:16;75.13;;;50.80;;
16626;SDS011;8427;52.204;7.202;2023-06-04T13:12:44;63.40;;;49.40;;
16626;SDS011;8427;52.204;7.202;2023-06-04T13:15:12;66.73;;;49.57;;
16626;SDS011;8427;52.204;7.202;2023-06-04T13:17:40;72.00;;;50.40;;
16626;SDS011;8427;52.204;7.202;2023-06-04T13:20:08;76.37;;;50.97;;
16626;SDS011;8427;52.204;7.202;2023-06-04T13:22:38;67.00;;;49.73;;
16626;SDS011;8427;52.204;7.202;2023-06-04T13:25:07;63.83;;;49.50;;
16626;SDS011;8427;52.204;7.202;2023-06-04T13:27:35;64.57;;;49.00;;
16626;SDS011;8427;52.204;7.202;2023-06-04T13:30:04;68.20;;;50.20;;
16626;SDS011;8427;52.204;7.202;2023-06-04T13:32:33;66.30;;;49.73;;
16626;SDS011;8427;52.204;7.202;2023-06-04T13:35:01;69.33;;;50.40;;
16626;SDS011;8427;52.204;7.202;2023-06-04T13:37:29;63.33;;;49.20;;
16626;SDS011;8427;52.204;7.202;2023-06-04T13:39:58;64.07;;;49.43;;
16626;SDS011;8427;52.204;7.202;2023-06-04T13:42:27;66.10;;;50.00;;
16626;SDS011;8427;52.204;7.202;2023-06-04T13:44:55;61.80;;;49.40;;
16626;SDS011;8427;52.204;7.202;2023-06-04T13:47:23;63.93;;;49.47;;
16626;SDS011;8427;52.204;7.202;2023-06-04T13:49:51;59.07;;;48.90;;
16626;SDS011;8427;52.204;7.202;2023-06-04T13:52:19;65.83;;;49.67;;
16626;SDS011;8427;52.204;7.202;2023-06-04T13:54:47;58.03;;;49.10;;
16626;SDS011;8427;52.204;7.202;2023-06-04T13:57:17;61.13;;;49.30;;
16626;SDS011;8427;52.204;7.202;2023-06-04T13:59:45;56.37;;;48.60;;
16626;SDS011;8427;52.204;7.202;2023-06-04T14:02:13;62.07;;;49.13;;
16626;SDS011;8427;52.204;7.202;2023-06-04T14:04:41;59.70;;;48.67;;
16626;SDS011;8427;52.204;7.202;2023-06-04T14:07:09;61.67;;;48.90;;
16626;SDS011;8427;52.204;7.202;2023-06-04T14:09:37;80.17;;;52.27;;
16626;SDS011;8427;52.204;7.202;2023-06-04T14:12:05;66.67;;;50.17;;
16626;SDS011;8427;52.204;7.202;2023-06-04T14:14:35;63.00;;;49.10;;
16626;SDS011;8427;52.204;7.202;2023-06-04T14:17:03;62.23;;;48.73;;
16626;SDS011;8427;52.204;7.202;2023-06-04T14:19:32;73.10;;;51.23;;
16626;SDS011;8427;52.204;7.202;2023-06-04T14:22:00;59.67;;;48.87;;
16626;SDS011;8427;52.204;7.202;2023-06-04T14:24:28;61.10;;;49.23;;
16626;SDS011;8427;52.204;7.202;2023-06-04T14:26:57;63.90;;;49.50;;
16626;SDS011;8427;52.204;7.202;2023-06-04T14:29:25;65.00;;;49.50;;
16626;SDS011;8427;52.204;7.202;2023-06-04T14:31:54;60.53;;;49.10;;
16626;SDS011;8427;52.204;7.202;2023-06-04T14:34:22;63.30;;;49.07;;
16626;SDS011;8427;52.204;7.202;2023-06-04T14:36:50;61.13;;;49.27;;
16626;SDS011;8427;52.204;7.202;2023-06-04T14:39:18;61.23;;;49.17;;
16626;SDS011;8427;52.204;7.202;2023-06-04T14:41:48;66.53;;;49.87;;
16626;SDS011;8427;52.204;7.202;2023-06-04T14:44:17;61.97;;;49.20;;
16626;SDS011;8427;52.204;7.202;2023-06-04T14:46:45;57.57;;;48.70;;